Time;durP1;ratioP1;P1;durP2;ratioP2;P2;SDS_P1;SDS_P2;PMS_P1;PMS_P2;Temp;Humidity;BMP_temperature;BMP_pressure;BME280_temperature;BME280_humidity;BME280_pressure;Samples;Min_cycle;Max_cycle;Signal;HPM_P1;HPM_P2
2021/10/09 00:00:17;;;;;;;42.92;20.92;;;;;;;;;;6197860;28;20046;-83
2021/10/09 00:03:18;;;;;;;43.33;20.02;;;;;;;;;;6196090;28;20188;-82
2021/10/09 00:06:20;;;;;;;48.40;22.23;;;;;;;;;;6197095;28;20034;-83
2021/10/09 00:09:22;;;;;;;45.25;20.60;;;;;;;;;;6194830;28;20057;-83
2021/10/09 00:12:24;;;;;;;49.60;21.73;;;;;;;;;;6195822;28;20050;-83
2021/10/09 00:15:25;;;;;;;54.88;23.63;;;;;;;;;;6178638;28;20043;-82
2021/10/09 00:18:27;;;;;;;57.17;23.45;;;;;;;;;;6191708;28;20418;-83
2021/10/09 00:21:28;;;;;;;51.38;21.90;;;;;;;;;;6178075;28;20046;-84
2021/10/09 00:24:31;;;;;;;49.65;21.38;;;;;;;;;;6177100;28;20035;-83
2021/10/09 00:27:32;;;;;;;49.80;21.93;;;;;;;;;;6177166;28;20038;-84
2021/10/09 00:30:34;;;;;;;51.20;21.52;;;;;;;;;;6196375;28;20050;-82
2021/10/09 00:33:36;;;;;;;48.72;21.40;;;;;;;;;;6181062;28;20069;-81
2021/10/09 00:36:37;;;;;;;50.25;22.23;;;;;;;;;;6195680;28;20043;-84
2021/10/09 00:39:39;;;;;;;51.60;21.10;;;;;;;;;;6196394;28;20042;-82
2021/10/09 00:42:43;;;;;;;56.65;22.35;;;;;;;;;;6211614;28;20080;-83
2021/10/09 00:45:52;;;;;;;53.97;21.92;;;;;;;;;;6212913;28;20049;-81
2021/10/09 00:48:54;;;;;;;49.63;22.13;;;;;;;;;;6195658;28;20072;-84
2021/10/09 00:51:57;;;;;;;54.25;22.70;;;;;;;;;;6211514;28;20129;-83
2021/10/09 00:55:01;;;;;;;55.08;22.98;;;;;;;;;;6228010;28;20038;-83
2021/10/09 00:58:03;;;;;;;49.60;21.55;;;;;;;;;;6195352;28;20070;-83
2021/10/09 01:01:05;;;;;;;51.92;21.88;;;;;;;;;;6197962;28;20054;-83
2021/10/09 01:04:08;;;;;;;52.63;22.10;;;;;;;;;;6227467;28;20607;-83
2021/10/09 01:07:10;;;;;;;50.58;21.95;;;;;;;;;;6211726;28;20112;-82
2021/10/09 01:10:13;;;;;;;46.28;20.20;;;;;;;;;;6194321;28;20042;-81
2021/10/09 01:13:15;;;;;;;44.70;20.13;;;;;;;;;;6204856;28;20081;-82
2021/10/09 01:16:25;;;;;;;44.85;19.60;;;;;;;;;;6211142;28;20085;-82
2021/10/09 01:19:27;;;;;;;49.85;21.48;;;;;;;;;;6211964;28;20558;-82
2021/10/09 01:22:29;;;;;;;105.40;23.13;;;;;;;;;;6171261;28;20039;-83
2021/10/09 01:25:31;;;;;;;49.28;22.13;;;;;;;;;;6206680;28;20125;-83
2021/10/09 01:28:35;;;;;;;54.17;21.15;;;;;;;;;;6228480;28;20046;-82
2021/10/09 01:31:37;;;;;;;55.25;22.83;;;;;;;;;;6195766;28;20479;-82
2021/10/09 01:34:39;;;;;;;49.78;22.40;;;;;;;;;;6212788;28;20049;-83
2021/10/09 01:37:48;;;;;;;56.33;20.48;;;;;;;;;;6229762;28;20049;-84
2021/10/09 01:40:50;;;;;;;59.15;22.70;;;;;;;;;;6211010;28;20414;-82
2021/10/09 01:43:52;;;;;;;63.83;23.90;;;;;;;;;;6194435;28;20416;-83
2021/10/09 01:46:54;;;;;;;58.15;23.63;;;;;;;;;;6173781;28;20038;-84
2021/10/09 01:49:56;;;;;;;60.83;22.83;;;;;;;;;;6210249;28;20058;-82
2021/10/09 01:52:58;;;;;;;71.10;24.45;;;;;;;;;;6189779;28;20042;-83
2021/10/09 01:56:00;;;;;;;63.20;23.33;;;;;;;;;;6194071;28;20058;-83
2021/10/09 01:59:03;;;;;;;72.32;23.15;;;;;;;;;;6195411;28;20048;-84
2021/10/09 02:02:11;;;;;;;70.15;23.48;;;;;;;;;;6176675;28;20041;-84
2021/10/09 02:05:13;;;;;;;70.28;21.67;;;;;;;;;;6211157;28;20050;-84
2021/10/09 02:08:16;;;;;;;80.78;24.27;;;;;;;;;;6180062;28;20046;-84
2021/10/09 02:11:20;;;;;;;102.40;26.10;;;;;;;;;;6197003;28;20081;-83
2021/10/09 02:27:10;;;;;;;60.63;20.08;;;;;;;;;;6195781;28;20129;-83
2021/10/09 02:30:14;;;;;;;51.33;19.60;;;;;;;;;;6190811;28;20050;-84
2021/10/09 02:33:17;;;;;;;83.65;22.25;;;;;;;;;;6179143;28;20055;-82
2021/10/09 02:36:19;;;;;;;70.78;20.13;;;;;;;;;;6195042;28;20042;-84
2021/10/09 02:39:23;;;;;;;51.13;19.30;;;;;;;;;;6179298;28;20042;-83
2021/10/09 02:42:26;;;;;;;47.55;18.65;;;;;;;;;;6168907;28;20047;-82
2021/10/09 02:45:27;;;;;;;45.92;18.38;;;;;;;;;;6178222;28;20054;-85
2021/10/09 02:48:30;;;;;;;57.10;19.73;;;;;;;;;;6194489;28;20050;-81
2021/10/09 02:51:32;;;;;;;44.53;18.10;;;;;;;;;;6211486;28;20530;-85
2021/10/09 02:54:34;;;;;;;45.08;19.15;;;;;;;;;;6195042;28;20078;-84
2021/10/09 02:57:37;;;;;;;42.42;18.17;;;;;;;;;;6193975;28;20047;-84
2021/10/09 03:00:42;;;;;;;58.10;19.63;;;;;;;;;;6184230;28;20066;-84
2021/10/09 03:03:44;;;;;;;44.85;18.13;;;;;;;;;;6215108;28;20753;-83
2021/10/09 03:06:46;;;;;;;41.60;17.90;;;;;;;;;;6185527;28;20050;-84
2021/10/09 03:09:48;;;;;;;41.33;17.77;;;;;;;;;;6191392;28;20053;-84
2021/10/09 03:12:50;;;;;;;64.28;18.70;;;;;;;;;;6185586;28;20448;-84
2021/10/09 03:15:52;;;;;;;42.05;18.88;;;;;;;;;;6187233;28;20054;-80
2021/10/09 03:18:54;;;;;;;51.20;19.15;;;;;;;;;;6208616;28;20047;-81
2021/10/09 03:21:56;;;;;;;40.75;16.92;;;;;;;;;;6234305;28;20054;-84
2021/10/09 03:24:58;;;;;;;44.17;19.52;;;;;;;;;;6213468;28;20046;-82
2021/10/09 03:28:00;;;;;;;40.35;16.92;;;;;;;;;;6198050;28;20046;-82
2021/10/09 03:31:02;;;;;;;42.95;17.65;;;;;;;;;;6182256;28;20474;-84
2021/10/09 03:34:10;;;;;;;54.15;17.40;;;;;;;;;;6173816;28;20047;-84
2021/10/09 03:37:12;;;;;;;46.80;16.95;;;;;;;;;;6175187;28;20051;-82
2021/10/09 03:40:18;;;;;;;50.45;16.58;;;;;;;;;;6189436;28;20046;-83
2021/10/09 03:43:22;;;;;;;43.08;16.55;;;;;;;;;;6209726;28;20551;-82
2021/10/09 03:46:27;;;;;;;50.45;15.90;;;;;;;;;;6181505;28;20150;-82
2021/10/09 03:49:46;;;;;;;51.67;16.10;;;;;;;;;;6182043;28;20046;-84
2021/10/09 03:52:48;;;;;;;40.88;17.90;;;;;;;;;;6173576;28;20416;-83
2021/10/09 03:55:50;;;;;;;56.53;17.40;;;;;;;;;;6174226;28;20047;-82
2021/10/09 03:58:52;;;;;;;38.60;16.80;;;;;;;;;;6174396;28;20105;-81
2021/10/09 04:01:55;;;;;;;53.87;17.67;;;;;;;;;;6173811;28;20169;-82
2021/10/09 04:04:57;;;;;;;62.65;17.48;;;;;;;;;;6181584;28;20488;-81
2021/10/09 04:07:59;;;;;;;56.63;19.10;;;;;;;;;;6184973;28;20057;-82
2021/10/09 04:11:02;;;;;;;72.05;17.88;;;;;;;;;;6225855;28;20053;-83
2021/10/09 04:14:03;;;;;;;69.53;18.10;;;;;;;;;;6192147;28;20409;-84
2021/10/09 04:17:05;;;;;;;62.72;18.10;;;;;;;;;;6190624;28;20043;-83
2021/10/09 04:20:07;;;;;;;73.85;18.17;;;;;;;;;;6177349;28;20050;-85
2021/10/09 04:23:09;;;;;;;63.77;16.20;;;;;;;;;;6191418;28;20042;-83
2021/10/09 04:26:11;;;;;;;35.83;16.83;;;;;;;;;;6194126;28;20063;-84
2021/10/09 04:29:14;;;;;;;39.45;17.10;;;;;;;;;;6194140;28;20042;-84
2021/10/09 04:32:17;;;;;;;42.53;17.85;;;;;;;;;;6191451;28;20048;-81
2021/10/09 04:35:19;;;;;;;39.67;16.95;;;;;;;;;;6212875;28;20052;-82
2021/10/09 04:38:21;;;;;;;37.55;15.70;;;;;;;;;;6193958;28;20045;-82
2021/10/09 04:41:23;;;;;;;37.80;16.85;;;;;;;;;;6195932;28;20046;-83
2021/10/09 04:44:26;;;;;;;33.80;15.75;;;;;;;;;;6187370;28;20046;-82
2021/10/09 04:47:27;;;;;;;41.50;15.60;;;;;;;;;;6194047;28;20056;-83
2021/10/09 04:50:29;;;;;;;37.58;17.52;;;;;;;;;;6196255;28;20046;-83
2021/10/09 04:53:31;;;;;;;35.97;15.27;;;;;;;;;;6198479;28;20041;-83
2021/10/09 04:56:33;;;;;;;35.25;15.77;;;;;;;;;;6197705;28;20116;-83
2021/10/09 04:59:37;;;;;;;36.72;16.55;;;;;;;;;;6196542;28;20038;-83
2021/10/09 05:02:39;;;;;;;35.65;18.05;;;;;;;;;;6198677;28;20136;-81
2021/10/09 05:05:44;;;;;;;57.78;25.05;;;;;;;;;;6196224;28;20061;-86
2021/10/09 05:08:48;;;;;;;34.85;14.25;;;;;;;;;;6213895;28;20049;-84
2021/10/09 05:11:50;;;;;;;34.08;14.98;;;;;;;;;;6190110;28;20057;-84
2021/10/09 05:14:52;;;;;;;44.67;14.23;;;;;;;;;;6227896;28;20120;-82
2021/10/09 05:17:54;;;;;;;31.85;14.88;;;;;;;;;;6180604;28;20434;-83
2021/10/09 05:20:56;;;;;;;35.67;15.15;;;;;;;;;;6203719;28;20053;-84
2021/10/09 05:23:58;;;;;;;36.72;15.68;;;;;;;;;;6179016;28;20042;-83
2021/10/09 05:27:01;;;;;;;33.03;16.70;;;;;;;;;;6196726;28;20093;-83
2021/10/09 05:30:07;;;;;;;34.22;15.50;;;;;;;;;;6196740;28;20531;-80
2021/10/09 05:36:20;;;;;;;38.08;14.80;;;;;;;;;;6195864;28;20698;-81
2021/10/09 05:39:22;;;;;;;36.05;15.38;;;;;;;;;;6213209;28;20046;-83
2021/10/09 05:42:28;;;;;;;37.25;16.23;;;;;;;;;;6197157;28;20066;-82
2021/10/09 05:45:33;;;;;;;36.92;16.35;;;;;;;;;;6199229;28;20050;-82
2021/10/09 05:48:38;;;;;;;73.70;16.65;;;;;;;;;;6197861;28;20050;-83
2021/10/09 05:51:50;;;;;;;;;;;;;;;;;;6184792;28;20085;-82
2021/10/09 05:55:08;;;;;;;38.47;15.20;;;;;;;;;;6209246;28;19922;-84
2021/10/09 05:58:16;;;;;;;34.15;14.95;;;;;;;;;;6197049;28;20038;-81
2021/10/09 06:44:59;;;;;;;30.15;13.85;;;;;;;;;;6219972;28;20046;-80
2021/10/09 06:48:12;;;;;;;29.17;14.02;;;;;;;;;;6209945;28;20054;-81
2021/10/09 07:01:08;;;;;;;27.92;13.20;;;;;;;;;;6206525;28;20393;-81
2021/10/09 07:04:10;;;;;;;26.20;12.65;;;;;;;;;;6204492;28;20054;-82
2021/10/09 07:07:18;;;;;;;25.63;13.60;;;;;;;;;;6207498;28;20046;-85
2021/10/09 07:10:30;;;;;;;29.13;15.07;;;;;;;;;;6237669;28;20061;-82
2021/10/09 07:13:32;;;;;;;28.75;13.55;;;;;;;;;;6204890;28;20109;-82
2021/10/09 07:16:34;;;;;;;30.00;15.25;;;;;;;;;;6208244;28;20110;-83
2021/10/09 07:19:37;;;;;;;32.17;15.20;;;;;;;;;;6205664;28;20065;-82
2021/10/09 07:22:39;;;;;;;35.42;18.33;;;;;;;;;;6190009;28;20050;-82
2021/10/09 07:25:52;;;;;;;32.17;16.02;;;;;;;;;;6182880;28;20046;-82
2021/10/09 07:28:53;;;;;;;46.08;21.15;;;;;;;;;;6222378;28;20054;-82
2021/10/09 07:31:55;;;;;;;35.00;17.80;;;;;;;;;;6201185;28;20078;-84
2021/10/09 07:34:57;;;;;;;32.10;16.10;;;;;;;;;;6200169;28;20500;-82
2021/10/09 07:37:58;;;;;;;29.85;15.43;;;;;;;;;;6207549;28;20049;-84
2021/10/09 07:41:01;;;;;;;29.30;15.38;;;;;;;;;;6221353;28;20058;-83
2021/10/09 07:44:02;;;;;;;31.45;15.20;;;;;;;;;;6225835;28;20113;-83
2021/10/09 07:47:06;;;;;;;28.48;17.35;;;;;;;;;;6204834;28;20066;-81
2021/10/09 07:50:08;;;;;;;30.27;17.02;;;;;;;;;;6205633;28;20133;-84
2021/10/09 07:53:10;;;;;;;33.50;20.10;;;;;;;;;;6202511;28;20050;-83
2021/10/09 07:56:11;;;;;;;35.53;21.58;;;;;;;;;;6199168;28;20178;-83
2021/10/09 07:59:13;;;;;;;31.55;19.70;;;;;;;;;;6177563;28;20043;-82
2021/10/09 08:02:15;;;;;;;29.27;18.55;;;;;;;;;;6194837;28;20499;-82
2021/10/09 08:05:18;;;;;;;24.27;16.70;;;;;;;;;;6185629;28;20065;-84
2021/10/09 08:08:20;;;;;;;23.53;15.83;;;;;;;;;;6183745;28;20034;-81
2021/10/09 08:11:22;;;;;;;23.70;14.65;;;;;;;;;;6198495;28;20093;-82
2021/10/09 08:14:24;;;;;;;20.75;14.05;;;;;;;;;;6196916;28;20038;-82
2021/10/09 08:17:25;;;;;;;20.92;13.95;;;;;;;;;;6196626;28;20042;-78
2021/10/09 08:20:27;;;;;;;18.63;12.00;;;;;;;;;;6204427;28;20045;-80
2021/10/09 08:23:33;;;;;;;17.23;11.63;;;;;;;;;;6204065;28;20046;-80
2021/10/09 08:36:37;;;;;;;22.52;12.75;;;;;;;;;;6202967;28;20138;-80
2021/10/09 08:39:43;;;;;;;32.38;21.60;;;;;;;;;;6202566;28;20058;-79
2021/10/09 08:42:45;;;;;;;32.50;22.00;;;;;;;;;;6207216;28;20050;-81
2021/10/09 08:45:46;;;;;;;22.70;13.07;;;;;;;;;;6192200;28;20138;-81
2021/10/09 08:48:51;;;;;;;20.33;11.45;;;;;;;;;;6191999;28;20045;-81
2021/10/09 08:51:52;;;;;;;25.17;14.30;;;;;;;;;;6191276;28;20047;-80
2021/10/09 08:54:54;;;;;;;22.45;11.77;;;;;;;;;;6186596;28;20046;-80
2021/10/09 08:58:02;;;;;;;16.30;10.65;;;;;;;;;;6193788;28;20044;-80
2021/10/09 09:01:21;;;;;;;19.75;9.77;;;;;;;;;;6188083;28;20056;-80
2021/10/09 09:40:43;;;;;;;15.25;9.75;;;;;;;;;;6228446;28;20389;-81
2021/10/09 09:43:44;;;;;;;;;;;;;;;;;;6198193;28;20045;-81
2021/10/09 09:47:05;;;;;;;16.70;10.10;;;;;;;;;;6195804;28;19980;-80
2021/10/09 09:50:28;;;;;;;15.27;9.02;;;;;;;;;;6210446;28;20054;-79
2021/10/09 09:53:30;;;;;;;;;;;;;;;;;;6188609;28;20052;-80
2021/10/09 09:56:32;;;;;;;18.08;10.65;;;;;;;;;;6179037;28;20403;-81
2021/10/09 09:59:33;;;;;;;16.30;10.70;;;;;;;;;;6183541;28;20047;-81
2021/10/09 10:02:44;;;;;;;17.23;10.18;;;;;;;;;;6180544;28;20051;-79
2021/10/09 10:05:46;;;;;;;16.60;10.07;;;;;;;;;;6188316;28;20089;-81
2021/10/09 10:08:48;;;;;;;17.58;10.98;;;;;;;;;;6219654;28;20026;-84
2021/10/09 10:11:50;;;;;;;20.15;8.82;;;;;;;;;;6202882;28;20049;-83
2021/10/09 10:14:53;;;;;;;16.38;8.32;;;;;;;;;;6197838;28;20034;-84
2021/10/09 10:17:56;;;;;;;18.05;9.55;;;;;;;;;;6185816;28;20046;-83
2021/10/09 10:20:57;;;;;;;14.50;8.73;;;;;;;;;;6224835;28;20054;-85
2021/10/09 10:23:59;;;;;;;18.75;9.38;;;;;;;;;;6192242;28;20893;-84
2021/10/09 10:27:32;;;;;;;14.23;8.95;;;;;;;;;;6193765;28;20054;-86
2021/10/09 10:30:40;;;;;;;15.32;8.55;;;;;;;;;;6193112;28;20053;-84
2021/10/09 10:33:49;;;;;;;24.63;16.77;;;;;;;;;;6189117;28;20053;-82
2021/10/09 10:36:51;;;;;;;21.02;14.43;;;;;;;;;;6193777;28;20834;-86
2021/10/09 10:39:52;;;;;;;16.48;8.88;;;;;;;;;;6192897;28;20038;-83
2021/10/09 10:42:54;;;;;;;16.35;10.30;;;;;;;;;;6199807;28;20054;-84
2021/10/09 10:45:56;;;;;;;15.95;7.88;;;;;;;;;;6221628;28;20484;-85
2021/10/09 10:52:49;;;;;;;13.38;8.02;;;;;;;;;;6192629;28;20452;-84
2021/10/09 10:56:08;;;;;;;19.42;10.63;;;;;;;;;;6166135;28;20050;-83
2021/10/09 10:59:29;;;;;;;20.23;9.57;;;;;;;;;;6168528;28;20052;-81
2021/10/09 11:02:39;;;;;;;14.30;7.80;;;;;;;;;;6170045;28;20049;-84
2021/10/09 11:05:41;;;;;;;14.85;7.80;;;;;;;;;;6188611;28;20062;-84
2021/10/09 11:08:48;;;;;;;12.48;7.60;;;;;;;;;;6191803;28;20050;-84
2021/10/09 11:11:50;;;;;;;10.93;7.78;;;;;;;;;;6188381;28;20137;-86
2021/10/09 11:15:08;;;;;;;12.20;7.35;;;;;;;;;;6206100;28;20049;-86
2021/10/09 11:18:10;;;;;;;13.35;8.35;;;;;;;;;;6183088;28;20054;-85
2021/10/09 11:21:11;;;;;;;14.75;8.93;;;;;;;;;;6197321;28;20069;-85
2021/10/09 11:24:13;;;;;;;11.52;7.60;;;;;;;;;;6196880;28;20054;-84
2021/10/09 11:27:16;;;;;;;10.85;7.30;;;;;;;;;;6186998;28;20043;-86
2021/10/09 11:30:18;;;;;;;13.23;8.18;;;;;;;;;;6191200;28;20061;-83
2021/10/09 11:33:27;;;;;;;14.05;8.95;;;;;;;;;;6201819;28;20061;-85
2021/10/09 11:36:29;;;;;;;13.63;8.43;;;;;;;;;;6181820;28;20097;-88
2021/10/09 11:39:44;;;;;;;12.35;7.47;;;;;;;;;;6175524;28;20060;-82
2021/10/09 11:42:51;;;;;;;11.90;7.35;;;;;;;;;;6199994;28;20094;-83
2021/10/09 11:56:10;;;;;;;11.38;7.55;;;;;;;;;;6218339;28;20050;-82
2021/10/09 11:59:13;;;;;;;12.40;7.40;;;;;;;;;;6205642;28;20053;-83
2021/10/09 12:02:33;;;;;;;13.93;7.93;;;;;;;;;;6205340;28;20056;-79
2021/10/09 12:05:56;;;;;;;13.75;7.70;;;;;;;;;;6200379;28;20078;-78
2021/10/09 12:09:01;;;;;;;12.75;7.78;;;;;;;;;;6227988;28;20058;-80
2021/10/09 12:12:18;;;;;;;12.00;7.82;;;;;;;;;;6180305;28;20504;-81
2021/10/09 12:15:25;;;;;;;13.25;8.05;;;;;;;;;;6193945;28;20645;-80
2021/10/09 12:18:27;;;;;;;9.02;7.07;;;;;;;;;;6226491;28;20125;-79
2021/10/09 12:21:31;;;;;;;10.65;7.22;;;;;;;;;;6186914;28;20576;-81
2021/10/09 12:24:45;;;;;;;12.13;6.85;;;;;;;;;;6173079;28;20050;-82
2021/10/09 12:27:54;;;;;;;10.95;7.63;;;;;;;;;;6190672;28;20126;-82
2021/10/09 12:30:56;;;;;;;11.10;6.50;;;;;;;;;;6191740;28;20049;-79
2021/10/09 12:33:57;;;;;;;11.73;9.88;;;;;;;;;;6191096;28;20042;-79
2021/10/09 12:37:27;;;;;;;18.13;11.27;;;;;;;;;;6196769;28;20124;-83
2021/10/09 12:40:49;;;;;;;17.15;11.57;;;;;;;;;;6193776;28;20042;-81
2021/10/09 12:43:55;;;;;;;14.10;7.30;;;;;;;;;;6196556;28;20052;-81
2021/10/09 12:46:57;;;;;;;11.88;6.95;;;;;;;;;;6198317;28;20085;-80
2021/10/09 12:49:58;;;;;;;11.65;7.22;;;;;;;;;;6192637;28;20173;-81
2021/10/09 12:53:00;;;;;;;11.32;7.88;;;;;;;;;;6195187;28;20688;-86
2021/10/09 12:56:02;;;;;;;9.00;7.07;;;;;;;;;;6187498;28;20050;-83
2021/10/09 12:59:04;;;;;;;11.82;7.18;;;;;;;;;;6185885;28;20050;-85
2021/10/09 13:02:06;;;;;;;11.32;7.75;;;;;;;;;;6187829;28;20050;-84
2021/10/09 13:05:08;;;;;;;14.57;8.27;;;;;;;;;;6180188;28;20047;-82
2021/10/09 13:08:10;;;;;;;11.57;6.82;;;;;;;;;;6200962;28;20047;-82
2021/10/09 13:11:11;;;;;;;9.02;6.68;;;;;;;;;;6182954;28;20124;-81
2021/10/09 13:14:13;;;;;;;9.80;6.50;;;;;;;;;;6182210;28;20053;-82
2021/10/09 13:17:15;;;;;;;10.52;7.15;;;;;;;;;;6187292;28;20078;-83
2021/10/09 13:20:18;;;;;;;10.32;6.88;;;;;;;;;;6226705;28;20512;-83
2021/10/09 13:23:19;;;;;;;9.50;6.95;;;;;;;;;;6196942;28;20042;-84
2021/10/09 13:26:24;;;;;;;12.13;6.88;;;;;;;;;;6190701;28;20050;-84
2021/10/09 13:29:25;;;;;;;12.27;9.45;;;;;;;;;;6228465;28;20122;-84
2021/10/09 13:32:27;;;;;;;10.27;6.25;;;;;;;;;;6212181;28;20046;-85
2021/10/09 13:35:29;;;;;;;14.20;10.20;;;;;;;;;;6205592;28;20495;-82
2021/10/09 13:38:33;;;;;;;14.00;7.68;;;;;;;;;;6192465;28;20050;-83
2021/10/09 13:41:34;;;;;;;9.75;5.88;;;;;;;;;;6195907;28;20038;-84
2021/10/09 13:44:36;;;;;;;9.77;5.95;;;;;;;;;;6196503;28;20062;-82
2021/10/09 13:47:37;;;;;;;8.52;6.15;;;;;;;;;;6195890;28;20049;-83
2021/10/09 13:50:44;;;;;;;8.85;6.00;;;;;;;;;;6189082;28;20042;-83
2021/10/09 13:53:46;;;;;;;8.65;5.97;;;;;;;;;;6195276;28;20038;-84
2021/10/09 13:56:47;;;;;;;8.88;5.65;;;;;;;;;;6176856;28;20054;-84
2021/10/09 13:59:49;;;;;;;10.35;5.65;;;;;;;;;;6195958;28;20043;-84
2021/10/09 14:02:50;;;;;;;8.85;5.88;;;;;;;;;;6204742;28;20137;-84
2021/10/09 14:05:53;;;;;;;9.80;6.17;;;;;;;;;;6195527;28;20073;-84
2021/10/09 14:08:55;;;;;;;10.85;5.82;;;;;;;;;;6192694;28;20444;-81
2021/10/09 14:11:57;;;;;;;10.27;5.50;;;;;;;;;;6192878;28;20057;-81
2021/10/09 14:14:59;;;;;;;9.05;5.53;;;;;;;;;;6195447;28;20081;-80
2021/10/09 14:18:01;;;;;;;15.45;7.82;;;;;;;;;;6221484;28;20049;-80
2021/10/09 14:21:02;;;;;;;49.90;18.23;;;;;;;;;;6194369;28;20053;-81
2021/10/09 14:24:04;;;;;;;16.05;5.93;;;;;;;;;;6193318;28;20056;-80
2021/10/09 14:27:06;;;;;;;11.10;6.20;;;;;;;;;;6187984;28;20076;-81
2021/10/09 14:30:09;;;;;;;16.17;7.72;;;;;;;;;;6196159;28;20053;-81
2021/10/09 14:33:10;;;;;;;;;;;;;;;;;;6215909;28;20050;-80
2021/10/09 14:36:12;;;;;;;6.97;5.30;;;;;;;;;;6188449;28;19922;-81
2021/10/09 14:39:13;;;;;;;57.58;18.83;;;;;;;;;;6195261;28;20039;-82
2021/10/09 14:42:16;;;;;;;9.05;4.95;;;;;;;;;;6221424;28;20066;-81
2021/10/09 14:45:18;;;;;;;10.48;5.15;;;;;;;;;;6194499;28;20049;-82
2021/10/09 14:48:22;;;;;;;7.63;4.82;;;;;;;;;;6225030;28;20046;-82
2021/10/09 15:02:34;;;;;;;6.97;5.07;;;;;;;;;;6206011;28;20046;-83
2021/10/09 15:18:23;;;;;;;6.97;5.18;;;;;;;;;;6184631;28;20109;-83
2021/10/09 15:21:25;;;;;;;8.00;6.25;;;;;;;;;;6206692;28;20057;-82
2021/10/09 15:24:26;;;;;;;9.32;5.70;;;;;;;;;;6207531;28;20046;-82
2021/10/09 15:27:29;;;;;;;9.85;5.68;;;;;;;;;;6190409;28;20096;-82
2021/10/09 15:30:30;;;;;;;7.57;5.65;;;;;;;;;;6205631;28;20122;-82
2021/10/09 15:33:32;;;;;;;10.27;6.35;;;;;;;;;;6183420;28;20038;-82
2021/10/09 15:36:33;;;;;;;10.38;6.30;;;;;;;;;;6190097;28;20542;-82
2021/10/09 15:39:36;;;;;;;9.07;6.25;;;;;;;;;;6207728;28;20407;-83
2021/10/09 15:42:38;;;;;;;;;;;;;;;;;;6175057;28;20104;-80
2021/10/09 15:45:39;;;;;;;10.68;6.65;;;;;;;;;;6208652;28;19926;-79
2021/10/09 15:48:42;;;;;;;11.82;7.20;;;;;;;;;;6219495;28;20042;-80
2021/10/09 15:51:43;;;;;;;14.70;7.28;;;;;;;;;;6199079;28;20046;-80
2021/10/09 15:54:45;;;;;;;11.27;6.90;;;;;;;;;;6197463;28;20038;-81
2021/10/09 15:57:47;;;;;;;10.70;7.27;;;;;;;;;;6198244;28;20046;-80
2021/10/09 16:00:49;;;;;;;12.90;7.60;;;;;;;;;;6199618;28;20128;-80
2021/10/09 16:03:50;;;;;;;11.57;6.45;;;;;;;;;;6199210;28;20042;-83
2021/10/09 16:06:53;;;;;;;12.43;7.95;;;;;;;;;;6203016;28;20042;-81
2021/10/09 16:09:55;;;;;;;10.38;6.93;;;;;;;;;;6202754;28;20046;-81
2021/10/09 16:12:57;;;;;;;12.98;7.53;;;;;;;;;;6204198;28;20054;-82
2021/10/09 16:15:58;;;;;;;12.63;7.07;;;;;;;;;;6236883;28;20051;-82
2021/10/09 16:19:00;;;;;;;12.68;8.32;;;;;;;;;;6199902;28;20061;-80
2021/10/09 16:22:02;;;;;;;14.00;9.60;;;;;;;;;;6232374;28;20046;-81
2021/10/09 16:25:04;;;;;;;19.67;11.55;;;;;;;;;;6184968;28;20270;-81
2021/10/09 16:28:06;;;;;;;28.30;14.67;;;;;;;;;;6206696;28;20056;-82
2021/10/09 16:31:09;;;;;;;37.80;18.37;;;;;;;;;;6188401;28;20058;-82
2021/10/09 16:34:11;;;;;;;37.00;21.30;;;;;;;;;;6184376;28;20053;-82
2021/10/09 16:37:14;;;;;;;19.42;12.45;;;;;;;;;;6201216;28;20117;-80
2021/10/09 16:40:16;;;;;;;19.58;11.77;;;;;;;;;;6199079;28;20049;-80
2021/10/09 16:43:17;;;;;;;18.75;10.10;;;;;;;;;;6200300;28;20101;-82
2021/10/09 16:46:19;;;;;;;20.00;12.52;;;;;;;;;;6199591;28;20054;-83
2021/10/09 16:49:21;;;;;;;58.00;25.80;;;;;;;;;;6194672;28;20059;-83
2021/10/09 16:52:22;;;;;;;62.25;29.33;;;;;;;;;;6186967;28;20046;-82
2021/10/09 16:55:25;;;;;;;57.55;24.60;;;;;;;;;;6189887;28;20044;-83
2021/10/09 16:58:27;;;;;;;44.88;20.27;;;;;;;;;;6223142;28;20042;-84
2021/10/09 17:01:29;;;;;;;37.13;16.75;;;;;;;;;;6179886;28;20042;-83
2021/10/09 17:04:31;;;;;;;26.52;13.80;;;;;;;;;;6187625;28;20045;-79
2021/10/09 17:07:32;;;;;;;25.85;13.00;;;;;;;;;;6203115;28;20065;-82
2021/10/09 17:10:37;;;;;;;19.55;11.48;;;;;;;;;;6228474;28;20046;-83
2021/10/09 17:13:39;;;;;;;25.88;15.55;;;;;;;;;;6201758;28;20049;-82
2021/10/09 17:16:41;;;;;;;22.83;16.00;;;;;;;;;;6195925;28;20042;-82
2021/10/09 17:19:50;;;;;;;19.83;12.98;;;;;;;;;;6190062;28;20046;-82
2021/10/09 17:22:52;;;;;;;21.58;13.63;;;;;;;;;;6192973;28;20057;-81
2021/10/09 17:25:54;;;;;;;18.30;10.75;;;;;;;;;;6198845;28;20045;-81
2021/10/09 17:28:56;;;;;;;25.83;14.65;;;;;;;;;;6190241;28;20520;-81
2021/10/09 17:31:58;;;;;;;46.15;22.33;;;;;;;;;;6194208;28;20057;-80
2021/10/09 17:35:00;;;;;;;37.00;18.45;;;;;;;;;;6227591;28;20046;-81
2021/10/09 17:38:08;;;;;;;28.67;15.73;;;;;;;;;;6198316;28;20053;-81
2021/10/09 17:41:10;;;;;;;38.10;18.75;;;;;;;;;;6195372;28;20058;-81
2021/10/09 17:44:11;;;;;;;25.23;13.98;;;;;;;;;;6196053;28;20043;-82
2021/10/09 17:47:13;;;;;;;29.08;15.32;;;;;;;;;;6190355;28;20412;-79
2021/10/09 17:50:14;;;;;;;23.23;12.93;;;;;;;;;;6176676;28;20043;-84
2021/10/09 17:53:17;;;;;;;21.60;12.95;;;;;;;;;;6170950;28;20500;-78
2021/10/09 17:56:18;;;;;;;21.55;12.38;;;;;;;;;;6190026;28;20563;-83
2021/10/09 17:59:21;;;;;;;16.75;10.85;;;;;;;;;;6223673;28;20885;-82
2021/10/09 18:02:22;;;;;;;19.57;11.10;;;;;;;;;;6192465;28;20050;-83
2021/10/09 18:05:24;;;;;;;93.13;31.63;;;;;;;;;;6192927;28;20054;-81
2021/10/09 18:08:26;;;;;;;36.08;17.20;;;;;;;;;;6177789;28;20042;-82
2021/10/09 18:11:27;;;;;;;56.13;24.30;;;;;;;;;;6192486;28;20556;-82
2021/10/09 18:14:29;;;;;;;37.28;18.42;;;;;;;;;;6193065;28;20056;-81
2021/10/09 18:17:31;;;;;;;41.58;20.33;;;;;;;;;;6170728;28;20047;-80
2021/10/09 18:20:32;;;;;;;34.38;17.52;;;;;;;;;;6171644;28;20038;-81
2021/10/09 18:23:34;;;;;;;24.08;14.18;;;;;;;;;;6206531;28;20057;-82
2021/10/09 18:26:36;;;;;;;25.10;13.18;;;;;;;;;;6181610;28;20285;-79
2021/10/09 18:29:38;;;;;;;25.00;14.43;;;;;;;;;;6183439;28;20042;-81
2021/10/09 18:32:39;;;;;;;22.40;14.85;;;;;;;;;;6210576;28;20048;-81
2021/10/09 18:35:41;;;;;;;26.15;14.98;;;;;;;;;;6197406;28;20053;-82
2021/10/09 18:38:44;;;;;;;24.85;15.63;;;;;;;;;;6201770;28;20043;-81
2021/10/09 18:41:46;;;;;;;29.00;15.23;;;;;;;;;;6196886;28;20042;-81
2021/10/09 18:44:48;;;;;;;24.60;14.57;;;;;;;;;;6197130;28;20042;-83
2021/10/09 18:47:49;;;;;;;23.48;16.10;;;;;;;;;;6196903;28;20039;-81
2021/10/09 18:50:51;;;;;;;26.30;15.30;;;;;;;;;;6196030;28;20107;-83
2021/10/09 18:53:53;;;;;;;24.35;14.40;;;;;;;;;;6197373;28;20412;-82
2021/10/09 18:56:54;;;;;;;29.25;15.27;;;;;;;;;;6212372;28;20039;-80
2021/10/09 18:59:56;;;;;;;32.22;18.63;;;;;;;;;;6196999;28;20051;-82
2021/10/09 19:03:00;;;;;;;27.98;17.27;;;;;;;;;;6196143;28;20056;-82
2021/10/09 19:06:01;;;;;;;20.40;12.55;;;;;;;;;;6182946;28;20042;-80
2021/10/09 19:09:03;;;;;;;47.40;26.75;;;;;;;;;;6215063;28;20061;-81
2021/10/09 19:12:05;;;;;;;40.75;22.08;;;;;;;;;;6199263;28;20039;-81
2021/10/09 19:15:07;;;;;;;31.20;20.50;;;;;;;;;;6196051;28;20046;-82
2021/10/09 19:18:09;;;;;;;36.75;22.55;;;;;;;;;;6220908;28;20058;-83
2021/10/09 19:21:13;;;;;;;34.03;19.30;;;;;;;;;;6197712;28;20046;-82
2021/10/09 19:24:15;;;;;;;32.08;19.00;;;;;;;;;;6196667;28;20062;-81
2021/10/09 19:27:16;;;;;;;35.25;18.90;;;;;;;;;;6228773;28;20046;-80
2021/10/09 19:30:19;;;;;;;28.48;15.88;;;;;;;;;;6193487;28;20048;-82
2021/10/09 19:33:22;;;;;;;32.30;17.73;;;;;;;;;;6191117;28;20046;-82
2021/10/09 19:36:25;;;;;;;29.75;17.42;;;;;;;;;;6191662;28;20038;-81
2021/10/09 19:39:27;;;;;;;28.98;16.00;;;;;;;;;;6182337;28;20060;-80
2021/10/09 19:42:29;;;;;;;27.35;15.90;;;;;;;;;;6198883;28;20042;-81
2021/10/09 19:45:31;;;;;;;26.40;15.32;;;;;;;;;;6181467;28;20070;-83
2021/10/09 19:48:33;;;;;;;28.45;15.52;;;;;;;;;;6171772;28;20838;-81
2021/10/09 19:51:53;;;;;;;30.30;17.17;;;;;;;;;;6196002;28;20492;-79
2021/10/09 19:55:07;;;;;;;24.98;14.35;;;;;;;;;;6228767;28;20076;-81
2021/10/09 19:58:09;;;;;;;29.60;16.65;;;;;;;;;;6197062;28;20185;-80
2021/10/09 20:01:11;;;;;;;27.02;15.30;;;;;;;;;;6228952;28;20069;-81
2021/10/09 20:04:13;;;;;;;30.80;15.43;;;;;;;;;;6170821;28;20604;-80
2021/10/09 20:07:15;;;;;;;26.70;16.23;;;;;;;;;;6170256;28;20074;-80
2021/10/09 20:11:10;;;;;;;22.25;14.15;;;;;;;;;;6172847;28;20073;-82
2021/10/09 20:13:38;;;;;;;27.10;14.75;;;;;;;;;;6201506;28;20057;-81
2021/10/09 20:16:40;;;;;;;26.13;14.40;;;;;;;;;;6199451;28;20065;-82
2021/10/09 20:19:43;;;;;;;24.08;13.85;;;;;;;;;;6231271;28;20070;-81
2021/10/09 20:22:55;;;;;;;26.52;15.48;;;;;;;;;;6199523;28;20510;-82
2021/10/09 20:25:57;;;;;;;25.50;15.68;;;;;;;;;;6180384;28;20853;-80
2021/10/09 20:28:59;;;;;;;28.60;16.70;;;;;;;;;;6183064;28;20049;-80